Time;durP1;ratioP1;P1;durP2;ratioP2;P2;SDS_P1;SDS_P2;PMS_P1;PMS_P2;Temp;Humidity;BMP_temperature;BMP_pressure;BME280_temperature;BME280_humidity;BME280_pressure;Samples;Min_cycle;Max_cycle;Signal;HPM_P1;HPM_P2
2020/12/29 00:02:19;;;;;;;4.57;2.97;;;;;;;2.85;96.03;94790.53;5095405;28;20733;-71
2020/12/29 00:04:46;;;;;;;3.00;2.70;;;;;;;2.91;95.58;94784.75;5095205;28;20711;-73
2020/12/29 00:07:12;;;;;;;2.87;2.57;;;;;;;2.92;95.92;94776.78;5095521;28;20260;-71
2020/12/29 00:09:38;;;;;;;2.57;2.37;;;;;;;3.03;95.62;94776.63;5095484;28;20674;-71
2020/12/29 00:12:04;;;;;;;3.23;2.73;;;;;;;3.00;95.14;94784.72;5094840;28;20227;-75
2020/12/29 00:14:30;;;;;;;2.50;1.90;;;;;;;3.08;95.28;94797.91;5095454;28;20689;-75
2020/12/29 00:16:56;;;;;;;1.90;1.80;;;;;;;2.98;96.48;94786.66;5093176;28;20249;-75
2020/12/29 00:19:25;;;;;;;2.00;1.90;;;;;;;2.78;98.96;94790.28;5094985;28;20218;-75
2020/12/29 00:21:52;;;;;;;2.23;1.87;;;;;;;2.71;99.64;94794.41;5095294;28;20204;-75
2020/12/29 00:24:18;;;;;;;2.30;2.10;;;;;;;2.69;100.00;94780.69;5094887;28;20799;-75
2020/12/29 00:26:44;;;;;;;3.13;2.20;;;;;;;2.54;100.00;94787.31;5094969;28;20202;-75
2020/12/29 00:29:10;;;;;;;1.70;1.60;;;;;;;2.47;100.00;94785.38;5095109;28;20255;-74
2020/12/29 00:31:37;;;;;;;1.70;1.47;;;;;;;2.41;100.00;94781.56;5095113;28;20555;-74
2020/12/29 00:34:04;;;;;;;1.77;1.63;;;;;;;2.40;100.00;94787.69;5095132;28;20609;-74
2020/12/29 00:36:30;;;;;;;2.23;1.50;;;;;;;2.39;100.00;94788.66;5095171;28;20209;-74
2020/12/29 00:38:57;;;;;;;1.57;1.40;;;;;;;2.41;100.00;94786.78;5094853;28;20203;-73
2020/12/29 00:41:24;;;;;;;1.23;1.13;;;;;;;2.41;100.00;94784.16;5094541;28;20703;-73
2020/12/29 00:43:51;;;;;;;1.40;1.20;;;;;;;2.39;100.00;94778.25;5093124;28;20234;-74
2020/12/29 00:46:19;;;;;;;2.40;1.10;;;;;;;2.33;100.00;94786.63;5094492;28;20218;-75
2020/12/29 00:48:46;;;;;;;1.47;1.13;;;;;;;2.35;100.00;94787.31;5094810;28;20216;-73
2020/12/29 00:51:15;;;;;;;1.60;1.17;;;;;;;2.53;100.00;94784.81;5094711;28;20336;-73
2020/12/29 00:53:41;;;;;;;1.73;1.10;;;;;;;2.59;100.00;94792.94;5094573;28;20279;-72
2020/12/29 00:56:09;;;;;;;0.97;0.97;;;;;;;2.53;100.00;94793.47;5094512;28;20231;-72
2020/12/29 00:58:36;;;;;;;1.00;0.90;;;;;;;2.44;100.00;94794.28;5094484;28;20223;-73
2020/12/29 01:01:02;;;;;;;1.00;0.90;;;;;;;2.46;100.00;94794.97;5094399;28;20209;-70
2020/12/29 01:03:28;;;;;;;1.33;1.00;;;;;;;2.43;100.00;94800.47;5094492;28;20576;-70
2020/12/29 01:05:54;;;;;;;1.17;1.10;;;;;;;2.52;100.00;94801.44;5094477;28;20246;-69
2020/12/29 01:08:22;;;;;;;1.27;1.17;;;;;;;2.54;100.00;94815.13;5094106;28;20220;-74
2020/12/29 01:10:51;;;;;;;1.73;1.10;;;;;;;2.49;100.00;94828.59;5093197;28;20620;-69
2020/12/29 01:13:17;;;;;;;0.80;0.80;;;;;;;2.58;100.00;94834.75;5093944;28;20645;-77
2020/12/29 01:15:43;;;;;;;0.97;0.97;;;;;;;2.65;100.00;94828.84;5093969;28;20235;-70
2020/12/29 01:18:09;;;;;;;0.77;0.77;;;;;;;2.86;100.00;94829.50;5093885;28;20259;-71
2020/12/29 01:20:35;;;;;;;0.93;0.83;;;;;;;2.97;100.00;94828.53;5094007;28;20247;-75
2020/12/29 01:23:01;;;;;;;0.80;0.80;;;;;;;3.02;100.00;94834.97;5094218;28;20298;-71
2020/12/29 01:25:29;;;;;;;1.27;0.80;;;;;;;3.01;100.00;94841.13;5093653;28;20251;-71
2020/12/29 01:27:54;;;;;;;0.90;0.90;;;;;;;3.04;100.00;94838.25;5093985;28;20210;-71
2020/12/29 01:30:21;;;;;;;0.93;0.90;;;;;;;2.97;100.00;94837.19;5093990;28;20285;-71
2020/12/29 01:32:47;;;;;;;0.83;0.83;;;;;;;3.04;100.00;94832.22;5093983;28;20253;-71
2020/12/29 01:35:13;;;;;;;1.67;0.80;;;;;;;3.06;100.00;94831.09;5091860;28;20323;-71
2020/12/29 01:37:41;;;;;;;1.13;0.80;;;;;;;3.01;100.00;94841.13;5093879;28;20578;-71
2020/12/29 01:40:08;;;;;;;1.20;1.10;;;;;;;3.03;100.00;94847.06;5093399;28;20249;-71
2020/12/29 01:42:35;;;;;;;0.73;0.73;;;;;;;3.05;100.00;94845.13;5093462;28;20587;-71
2020/12/29 01:45:01;;;;;;;1.00;0.90;;;;;;;3.10;100.00;94849.91;5093682;28;20212;-71
2020/12/29 01:47:29;;;;;;;1.03;0.70;;;;;;;3.15;100.00;94845.94;5093690;28;20206;-71
2020/12/29 01:49:55;;;;;;;0.60;0.60;;;;;;;3.21;100.00;94849.75;5093382;28;20670;-71
2020/12/29 01:52:21;;;;;;;0.90;0.87;;;;;;;3.19;100.00;94856.91;5093439;28;20207;-71
2020/12/29 01:54:47;;;;;;;0.80;0.80;;;;;;;3.17;100.00;94849.22;5093210;28;20300;-70
2020/12/29 01:57:13;;;;;;;1.27;0.87;;;;;;;3.20;100.00;94855.94;5093590;28;20248;-70
2020/12/29 01:59:39;;;;;;;0.70;0.70;;;;;;;3.24;100.00;94841.66;5093562;28;20576;-70
2020/12/29 02:02:05;;;;;;;0.80;0.80;;;;;;;3.15;100.00;94827.66;5091841;28;20218;-69
2020/12/29 02:04:32;;;;;;;0.80;0.80;;;;;;;3.15;100.00;94840.72;5093196;28;20211;-69
2020/12/29 02:06:58;;;;;;;0.80;0.80;;;;;;;3.13;100.00;94842.63;5093538;28;20229;-70
2020/12/29 02:09:25;;;;;;;0.80;0.80;;;;;;;3.13;100.00;94850.44;5093170;28;20214;-69
2020/12/29 02:11:51;;;;;;;0.80;0.80;;;;;;;3.18;100.00;94840.41;5093358;28;20243;-68
2020/12/29 02:14:17;;;;;;;0.70;0.70;;;;;;;3.16;100.00;94855.38;5093319;28;20592;-71
2020/12/29 02:16:44;;;;;;;0.80;0.80;;;;;;;3.17;100.00;94849.22;5093224;28;20219;-70
2020/12/29 02:19:11;;;;;;;0.80;0.80;;;;;;;3.16;100.00;94858.00;5093342;28;20728;-70
2020/12/29 02:21:37;;;;;;;1.10;1.00;;;;;;;3.19;100.00;94860.31;5093313;28;20207;-70
2020/12/29 02:24:05;;;;;;;0.63;0.63;;;;;;;3.21;100.00;94854.97;5092981;28;20239;-70
2020/12/29 02:26:33;;;;;;;0.80;0.80;;;;;;;3.24;100.00;94865.94;5093256;28;20235;-70
2020/12/29 02:29:00;;;;;;;0.80;0.80;;;;;;;3.21;100.00;94861.00;5091555;28;20210;-69
2020/12/29 02:31:27;;;;;;;0.90;0.77;;;;;;;3.27;100.00;94865.66;5092824;28;20212;-69
2020/12/29 02:33:53;;;;;;;1.13;1.00;;;;;;;3.29;100.00;94863.72;5093075;28;20208;-69
2020/12/29 02:36:19;;;;;;;1.17;0.87;;;;;;;3.28;100.00;94862.09;5092673;28;20232;-70
2020/12/29 02:38:45;;;;;;;1.17;0.90;;;;;;;3.31;100.00;94877.44;5092741;28;20211;-71
2020/12/29 02:41:12;;;;;;;0.70;0.70;;;;;;;3.32;100.00;94873.91;5092764;28;20210;-71
2020/12/29 02:43:38;;;;;;;0.90;0.80;;;;;;;3.31;100.00;94867.00;5092977;28;20219;-72
2020/12/29 02:46:04;;;;;;;1.03;0.63;;;;;;;3.28;100.00;94876.91;5092666;28;20217;-71
2020/12/29 02:48:30;;;;;;;0.60;0.60;;;;;;;3.36;100.00;94883.06;5092947;28;20217;-72
2020/12/29 02:50:56;;;;;;;0.70;0.70;;;;;;;3.44;100.00;94887.59;5096196;28;20652;-72
2020/12/29 02:53:22;;;;;;;1.00;0.77;;;;;;;3.45;100.00;94878.78;5095989;28;20302;-70
2020/12/29 02:55:48;;;;;;;1.17;1.17;;;;;;;3.43;100.00;94886.75;5096081;28;20244;-69
2020/12/29 02:58:15;;;;;;;1.83;0.80;;;;;;;3.41;100.00;94888.69;5097015;28;20214;-70
2020/12/29 03:00:41;;;;;;;0.90;0.60;;;;;;;3.42;100.00;94895.56;5096690;28;20235;-70
2020/12/29 03:03:07;;;;;;;0.93;0.70;;;;;;;3.22;100.00;94893.97;5096914;28;20657;-69
2020/12/29 03:05:33;;;;;;;0.60;0.60;;;;;;;3.06;100.00;94888.50;5096968;28;20707;-71
2020/12/29 03:07:59;;;;;;;0.50;0.50;;;;;;;3.06;100.00;94891.09;5096870;28;20576;-67
2020/12/29 03:10:25;;;;;;;0.60;0.60;;;;;;;3.03;100.00;94894.00;5096646;28;20212;-68
2020/12/29 03:12:51;;;;;;;0.60;0.60;;;;;;;2.99;100.00;94902.25;5096615;28;20635;-69
2020/12/29 03:15:18;;;;;;;0.53;0.53;;;;;;;3.14;100.00;94906.91;5096260;28;20230;-69
2020/12/29 03:17:44;;;;;;;0.63;0.63;;;;;;;3.21;100.00;94915.81;5096322;28;20225;-69
2020/12/29 03:20:10;;;;;;;1.00;0.50;;;;;;;3.27;100.00;94904.81;5094736;28;20207;-69
2020/12/29 03:22:36;;;;;;;0.50;0.50;;;;;;;3.24;100.00;94912.91;5096633;28;20251;-70
2020/12/29 03:25:02;;;;;;;0.50;0.50;;;;;;;3.16;100.00;94915.41;5096438;28;20212;-70
2020/12/29 03:27:28;;;;;;;0.93;0.60;;;;;;;3.15;100.00;94923.34;5096099;28;20250;-70
2020/12/29 03:29:54;;;;;;;0.60;0.60;;;;;;;3.22;100.00;94925.28;5096379;28;20233;-71
2020/12/29 03:32:21;;;;;;;0.80;0.60;;;;;;;3.29;100.00;94928.97;5096096;28;20305;-70
2020/12/29 03:34:47;;;;;;;0.80;0.70;;;;;;;3.31;100.00;94929.63;5096260;28;20237;-71
2020/12/29 03:37:13;;;;;;;0.60;0.60;;;;;;;3.26;100.00;94931.03;5096352;28;20211;-70
2020/12/29 03:39:40;;;;;;;0.50;0.50;;;;;;;3.22;100.00;94946.16;5096270;28;20276;-72
2020/12/29 03:42:06;;;;;;;0.60;0.50;;;;;;;3.08;100.00;94941.38;5095938;28;20207;-69
2020/12/29 03:44:33;;;;;;;0.50;0.50;;;;;;;2.98;100.00;94940.53;5096070;28;20266;-71
2020/12/29 03:46:59;;;;;;;0.50;0.50;;;;;;;2.95;100.00;94953.03;5094812;28;20284;-71
2020/12/29 03:49:26;;;;;;;1.30;0.47;;;;;;;2.97;100.00;94957.16;5095964;28;20207;-69
2020/12/29 03:51:52;;;;;;;0.67;0.53;;;;;;;3.05;100.00;94954.66;5095871;28;20213;-70
2020/12/29 03:54:18;;;;;;;0.50;0.50;;;;;;;3.02;100.00;94972.38;5095797;28;20330;-70
2020/12/29 03:56:44;;;;;;;0.50;0.50;;;;;;;3.05;100.00;94965.09;5095844;28;20306;-70
2020/12/29 03:59:10;;;;;;;0.57;0.43;;;;;;;3.05;100.00;94967.72;5095416;28;20250;-70
2020/12/29 04:01:36;;;;;;;1.03;0.50;;;;;;;3.04;100.00;94967.84;5095061;28;20257;-67
2020/12/29 04:04:03;;;;;;;0.80;0.43;;;;;;;3.00;100.00;94972.50;5095612;28;20208;-70
2020/12/29 04:06:30;;;;;;;0.70;0.70;;;;;;;2.98;100.00;94968.38;5095485;28;20212;-70
2020/12/29 04:08:56;;;;;;;0.40;0.40;;;;;;;2.97;100.00;94978.00;5095646;28;20204;-70
2020/12/29 04:11:22;;;;;;;1.17;0.60;;;;;;;2.90;100.00;94970.88;5095632;28;20239;-70
2020/12/29 04:13:48;;;;;;;0.60;0.50;;;;;;;2.84;100.00;94968.78;5093998;28;20234;-70
2020/12/29 04:16:14;;;;;;;0.60;0.50;;;;;;;2.84;100.00;94972.25;5095265;28;20719;-71
2020/12/29 04:18:40;;;;;;;0.43;0.43;;;;;;;2.88;100.00;94976.19;5095102;28;20240;-71
2020/12/29 04:21:05;;;;;;;0.57;0.57;;;;;;;2.94;100.00;94983.47;5095312;28;20242;-70
2020/12/29 04:23:32;;;;;;;0.40;0.40;;;;;;;3.01;100.00;94984.59;5095044;28;20239;-71
2020/12/29 04:25:59;;;;;;;0.77;0.60;;;;;;;3.07;100.00;94988.44;5095268;28;20211;-72
2020/12/29 04:28:25;;;;;;;0.60;0.60;;;;;;;3.13;100.00;94988.69;5095340;28;20266;-72
2020/12/29 04:30:51;;;;;;;0.63;0.60;;;;;;;3.21;100.00;94969.75;5094881;28;20618;-72
2020/12/29 04:33:17;;;;;;;1.50;0.60;;;;;;;3.18;100.00;94981.28;5095153;28;20211;-71
2020/12/29 04:35:43;;;;;;;1.53;0.70;;;;;;;3.17;100.00;94984.06;5095111;28;20562;-72
2020/12/29 04:38:09;;;;;;;0.67;0.60;;;;;;;3.16;100.00;94978.00;5093186;28;20245;-72
2020/12/29 04:40:36;;;;;;;1.23;0.67;;;;;;;3.08;100.00;94980.50;5094962;28;20557;-72
2020/12/29 04:43:02;;;;;;;0.90;0.43;;;;;;;2.99;100.00;94985.72;5094830;28;20222;-72
2020/12/29 04:45:29;;;;;;;1.93;0.67;;;;;;;2.84;100.00;94987.88;5094719;28;20204;-72
2020/12/29 04:47:56;;;;;;;0.70;0.60;;;;;;;2.88;100.00;94997.06;5094550;28;20211;-71
2020/12/29 04:50:22;;;;;;;0.70;0.60;;;;;;;2.83;100.00;94996.69;5094765;28;20220;-71
2020/12/29 04:52:56;;;;;;;0.57;0.57;;;;;;;2.91;100.00;95011.63;5094743;28;20212;-71
2020/12/29 04:55:28;;;;;;;2.43;0.70;;;;;;;2.92;100.00;95029.75;5094660;28;20632;-71
2020/12/29 04:57:55;;;;;;;0.73;0.50;;;;;;;2.92;100.00;95013.25;5094699;28;20208;-71
2020/12/29 05:00:23;;;;;;;0.50;0.50;;;;;;;2.94;100.00;95019.19;5094341;28;20694;-72
2020/12/29 05:02:49;;;;;;;1.37;0.80;;;;;;;2.95;100.00;95010.41;5094431;28;20206;-73
2020/12/29 05:05:15;;;;;;;1.30;0.67;;;;;;;2.98;100.00;95010.94;5092553;28;20250;-74
2020/12/29 05:07:41;;;;;;;2.10;0.87;;;;;;;3.03;100.00;95007.94;5094444;28;20256;-74
2020/12/29 05:10:07;;;;;;;1.07;0.50;;;;;;;3.10;100.00;95015.06;5094383;28;20271;-72
2020/12/29 05:12:33;;;;;;;2.33;0.70;;;;;;;3.11;100.00;95008.91;5093970;28;20244;-72
2020/12/29 05:15:06;;;;;;;1.43;0.70;;;;;;;3.15;100.00;95036.38;5093739;28;20231;-72
2020/12/29 05:17:32;;;;;;;2.10;0.67;;;;;;;3.20;100.00;95030.72;5094406;28;20207;-73
2020/12/29 05:19:59;;;;;;;0.70;0.60;;;;;;;3.23;100.00;95041.72;5094154;28;20676;-73
2020/12/29 05:22:25;;;;;;;1.80;0.60;;;;;;;3.24;100.00;95034.72;5094116;28;20212;-73
2020/12/29 05:24:51;;;;;;;1.53;0.60;;;;;;;3.28;100.00;95036.91;5093965;28;20257;-72
2020/12/29 05:27:21;;;;;;;2.60;0.70;;;;;;;3.19;100.00;95040.34;5093926;28;20208;-73
2020/12/29 05:29:47;;;;;;;0.70;0.60;;;;;;;3.20;100.00;95042.00;5093699;28;20203;-72
2020/12/29 05:32:18;;;;;;;1.77;0.80;;;;;;;3.25;100.00;95047.63;5092758;28;20228;-70
2020/12/29 05:34:44;;;;;;;1.20;0.67;;;;;;;3.23;100.00;95041.72;5093614;28;20237;-70
2020/12/29 05:37:15;;;;;;;2.17;0.80;;;;;;;3.24;100.00;95038.13;5094033;28;20295;-70
2020/12/29 05:39:41;;;;;;;2.10;0.70;;;;;;;3.27;100.00;95043.09;5093655;28;20215;-71
2020/12/29 05:42:07;;;;;;;0.83;0.70;;;;;;;3.32;100.00;95046.13;5093736;28;20213;-70
2020/12/29 05:44:35;;;;;;;0.53;0.53;;;;;;;3.31;100.00;95060.13;5093775;28;20211;-72
2020/12/29 05:47:02;;;;;;;0.83;0.60;;;;;;;3.35;100.00;95047.63;5093855;28;20207;-71
2020/12/29 05:49:30;;;;;;;1.33;0.67;;;;;;;3.39;100.00;95052.44;5093476;28;20731;-72
2020/12/29 05:51:57;;;;;;;1.40;0.70;;;;;;;3.32;100.00;95055.72;5093652;28;20220;-72
2020/12/29 05:54:25;;;;;;;1.07;0.50;;;;;;;3.33;100.00;95063.44;5093667;28;20252;-73
2020/12/29 05:56:52;;;;;;;0.67;0.60;;;;;;;3.39;100.00;95065.50;5091938;28;20213;-72
2020/12/29 05:59:19;;;;;;;1.13;0.60;;;;;;;3.35;100.00;95055.44;5093190;28;20215;-71
2020/12/29 06:01:46;;;;;;;0.87;0.50;;;;;;;3.35;100.00;95061.50;5093327;28;20206;-72
2020/12/29 06:04:12;;;;;;;0.40;0.40;;;;;;;3.38;100.00;95066.47;5093184;28;20212;-72
2020/12/29 06:06:41;;;;;;;0.73;0.50;;;;;;;3.31;100.00;95078.38;5093463;28;20210;-72
2020/12/29 06:09:08;;;;;;;0.73;0.50;;;;;;;3.26;100.00;95093.66;5093430;28;20618;-71
2020/12/29 06:11:40;;;;;;;0.63;0.40;;;;;;;3.24;100.00;95092.94;5093096;28;20676;-70
2020/12/29 06:14:10;;;;;;;0.50;0.50;;;;;;;3.22;100.00;95107.91;5093476;28;20203;-70
2020/12/29 06:16:38;;;;;;;1.50;0.50;;;;;;;3.21;100.00;95113.25;5093013;28;20256;-69
2020/12/29 06:19:17;;;;;;;1.83;0.60;;;;;;;3.18;100.00;95111.75;5093351;28;20203;-69
2020/12/29 06:21:51;;;;;;;0.50;0.50;;;;;;;3.13;100.00;95126.97;5093011;28;20202;-69
2020/12/29 06:24:19;;;;;;;0.73;0.57;;;;;;;3.10;100.00;95129.88;5091733;28;20577;-69
2020/12/29 06:26:48;;;;;;;0.83;0.50;;;;;;;3.06;100.00;95149.34;5093131;28;20214;-69
2020/12/29 06:29:20;;;;;;;0.50;0.50;;;;;;;3.13;100.00;95149.63;5093080;28;20298;-70
2020/12/29 06:31:46;;;;;;;0.40;0.40;;;;;;;3.26;100.00;95166.72;5092929;28;20212;-70
2020/12/29 06:34:17;;;;;;;0.63;0.50;;;;;;;3.28;100.00;95180.44;5093051;28;20215;-69
2020/12/29 06:36:44;;;;;;;0.60;0.60;;;;;;;3.27;100.00;95189.22;5093041;28;20288;-70
2020/12/29 06:39:13;;;;;;;0.80;0.47;;;;;;;3.28;100.00;95201.31;5092883;28;20211;-70
2020/12/29 06:41:41;;;;;;;0.50;0.40;;;;;;;3.39;100.00;95208.19;5093131;28;20211;-68
2020/12/29 06:44:07;;;;;;;0.63;0.60;;;;;;;3.41;100.00;95201.91;5092700;28;20211;-68
2020/12/29 06:46:33;;;;;;;0.60;0.60;;;;;;;3.44;100.00;95212.09;5092670;28;20238;-71
2020/12/29 06:49:18;;;;;;;0.70;0.53;;;;;;;3.44;100.00;95212.09;5091376;28;20256;-70
2020/12/29 06:51:45;;;;;;;0.73;0.60;;;;;;;3.53;100.00;95224.31;5092991;28;20570;-70
2020/12/29 06:54:14;;;;;;;1.10;0.53;;;;;;;3.59;100.00;95231.63;5092875;28;20221;-70
2020/12/29 06:56:56;;;;;;;0.50;0.50;;;;;;;3.65;100.00;95228.47;5092843;28;20288;-70
2020/12/29 06:59:22;;;;;;;0.53;0.50;;;;;;;3.65;100.00;95236.28;5092479;28;20695;-71
2020/12/29 07:01:49;;;;;;;0.90;0.50;;;;;;;3.74;100.00;95243.31;5092972;28;20241;-69
2020/12/29 07:04:16;;;;;;;0.57;0.50;;;;;;;3.73;100.00;95259.94;5092583;28;20215;-69
2020/12/29 07:06:42;;;;;;;0.70;0.57;;;;;;;3.74;100.00;95266.81;5092915;28;20252;-70
2020/12/29 07:09:26;;;;;;;0.73;0.40;;;;;;;3.83;100.00;95266.03;5092501;28;20213;-69
2020/12/29 07:12:06;;;;;;;0.77;0.50;;;;;;;3.84;100.00;95277.31;5092606;28;20321;-69
2020/12/29 07:14:34;;;;;;;0.90;0.60;;;;;;;3.82;100.00;95293.09;5091090;28;20219;-69
2020/12/29 07:17:00;;;;;;;1.03;0.50;;;;;;;3.86;100.00;95294.47;5092566;28;20260;-69
2020/12/29 07:19:28;;;;;;;1.67;0.60;;;;;;;3.86;100.00;95312.75;5092438;28;20216;-69
2020/12/29 07:21:54;;;;;;;1.03;0.60;;;;;;;3.92;100.00;95314.81;5092724;28;20224;-68
2020/12/29 07:24:20;;;;;;;0.53;0.47;;;;;;;3.96;100.00;95321.44;5092671;28;20216;-73
2020/12/29 07:26:48;;;;;;;0.57;0.57;;;;;;;3.98;100.00;95327.34;5092523;28;20209;-72
2020/12/29 07:29:14;;;;;;;0.50;0.50;;;;;;;3.96;100.00;95331.91;5092475;28;20207;-72
2020/12/29 07:31:42;;;;;;;1.57;0.70;;;;;;;3.98;100.00;95343.03;5092577;28;20209;-72
2020/12/29 07:34:11;;;;;;;1.37;0.57;;;;;;;4.02;100.00;95360.09;5092289;28;20219;-72
2020/12/29 07:36:42;;;;;;;0.80;0.80;;;;;;;3.94;100.00;95365.19;5090778;28;20231;-71
2020/12/29 07:39:11;;;;;;;0.70;0.70;;;;;;;3.96;100.00;95376.31;5093902;28;20213;-72
2020/12/29 07:41:38;;;;;;;1.20;0.70;;;;;;;3.85;100.00;95379.03;5093589;28;20211;-71
2020/12/29 07:44:05;;;;;;;1.03;0.60;;;;;;;3.71;100.00;95382.00;5094817;28;20665;-71
2020/12/29 07:46:32;;;;;;;1.07;1.00;;;;;;;3.61;100.00;95399.41;5092166;28;20214;-69
2020/12/29 07:48:58;;;;;;;0.53;0.50;;;;;;;3.56;100.00;95408.59;5096007;28;20214;-70
2020/12/29 07:51:24;;;;;;;0.83;0.70;;;;;;;3.49;100.00;95410.06;5095848;28;20203;-70
2020/12/29 07:53:50;;;;;;;0.70;0.70;;;;;;;3.36;100.00;95412.88;5095974;28;20570;-69
2020/12/29 07:56:16;;;;;;;0.70;0.70;;;;;;;3.33;100.00;95418.38;5095787;28;20235;-69
2020/12/29 07:58:42;;;;;;;2.10;0.80;;;;;;;3.18;100.00;95435.28;5095538;28;20560;-69
2020/12/29 08:01:09;;;;;;;0.90;0.90;;;;;;;3.08;100.00;95438.78;5095461;28;20267;-69
2020/12/29 08:03:35;;;;;;;1.10;0.90;;;;;;;3.00;100.00;95446.41;5095452;28;20202;-69
2020/12/29 08:06:01;;;;;;;1.00;1.00;;;;;;;2.98;100.00;95449.13;5095179;28;20253;-69
2020/12/29 08:08:27;;;;;;;0.70;0.60;;;;;;;2.98;100.00;95456.97;5094750;28;20264;-68
2020/12/29 08:10:53;;;;;;;0.70;0.70;;;;;;;2.91;100.00;95466.25;5095781;28;20569;-69
2020/12/29 08:13:20;;;;;;;1.10;0.90;;;;;;;2.83;100.00;95471.28;5095578;28;20238;-68
2020/12/29 08:15:47;;;;;;;0.60;0.60;;;;;;;2.81;100.00;95467.94;5095167;28;20234;-67
2020/12/29 08:18:16;;;;;;;0.80;0.80;;;;;;;2.79;100.00;95485.50;5095583;28;20208;-67
2020/12/29 08:20:45;;;;;;;1.00;0.80;;;;;;;2.82;100.00;95489.63;5095222;28;20214;-67
2020/12/29 08:23:11;;;;;;;0.83;0.80;;;;;;;2.90;100.00;95488.06;5095121;28;20668;-67
2020/12/29 08:25:37;;;;;;;1.37;0.90;;;;;;;2.87;100.00;95493.53;5095057;28;20218;-67
2020/12/29 08:28:05;;;;;;;0.83;0.70;;;;;;;2.85;100.00;95499.81;5095387;28;20216;-68
2020/12/29 08:30:33;;;;;;;0.67;0.67;;;;;;;2.95;100.00;95505.94;5094887;28;20733;-67
2020/12/29 08:33:02;;;;;;;2.10;1.10;;;;;;;2.96;100.00;95502.38;5093464;28;20206;-67
2020/12/29 08:35:33;;;;;;;1.83;1.20;;;;;;;2.96;100.00;95511.06;5094758;28;20234;-68
2020/12/29 08:38:12;;;;;;;1.13;1.10;;;;;;;3.01;100.00;95526.31;5094862;28;20730;-69
2020/12/29 08:40:45;;;;;;;2.17;1.17;;;;;;;3.02;100.00;95528.81;5094762;28;20217;-68
2020/12/29 08:43:11;;;;;;;1.40;1.10;;;;;;;3.03;100.00;95534.84;5095168;28;20241;-68
2020/12/29 08:45:37;;;;;;;3.20;1.80;;;;;;;2.98;100.00;95548.25;5095074;28;20203;-68
2020/12/29 08:48:03;;;;;;;4.20;2.30;;;;;;;3.07;100.00;95557.94;5094703;28;20211;-69
2020/12/29 08:50:31;;;;;;;2.73;2.30;;;;;;;3.11;100.00;95558.56;5094794;28;20249;-69
2020/12/29 08:53:06;;;;;;;3.90;1.87;;;;;;;3.07;100.00;95573.59;5094590;28;20207;-68
2020/12/29 08:55:35;;;;;;;2.40;1.67;;;;;;;3.06;100.00;95586.78;5094717;28;20659;-69
2020/12/29 08:58:01;;;;;;;3.73;1.70;;;;;;;3.05;100.00;95596.38;5094264;28;20214;-68
2020/12/29 09:00:30;;;;;;;3.37;2.20;;;;;;;3.12;100.00;95592.31;5093729;28;20613;-68
2020/12/29 09:02:57;;;;;;;1.63;1.33;;;;;;;3.16;100.00;95601.59;5094291;28;20668;-69
2020/12/29 09:05:24;;;;;;;1.27;1.00;;;;;;;3.23;100.00;95600.13;5094171;28;20691;-68
2020/12/29 09:07:51;;;;;;;1.03;0.90;;;;;;;3.31;100.00;95613.38;5094198;28;20211;-68
2020/12/29 09:10:18;;;;;;;0.63;0.63;;;;;;;3.28;100.00;95618.88;5094495;28;20210;-68
2020/12/29 09:12:44;;;;;;;0.70;0.70;;;;;;;3.30;100.00;95632.63;5094245;28;20250;-68
2020/12/29 09:15:12;;;;;;;0.50;0.50;;;;;;;3.34;100.00;95634.03;5093997;28;20232;-68
2020/12/29 09:17:40;;;;;;;1.90;0.80;;;;;;;3.42;100.00;95642.06;5094454;28;20211;-68
2020/12/29 09:20:17;;;;;;;1.40;0.90;;;;;;;3.48;100.00;95644.19;5094264;28;20213;-68
2020/12/29 09:22:52;;;;;;;1.57;0.90;;;;;;;3.52;100.00;95658.66;5094178;28;20207;-68
2020/12/29 09:25:26;;;;;;;1.37;1.27;;;;;;;3.54;100.00;95661.97;5092608;28;20259;-68
2020/12/29 09:28:09;;;;;;;1.00;0.90;;;;;;;3.57;100.00;95666.13;5094080;28;20240;-68
2020/12/29 09:30:35;;;;;;;1.97;0.90;;;;;;;3.59;100.00;95670.28;5093601;28;20202;-68
2020/12/29 09:33:01;;;;;;;2.33;0.90;;;;;;;3.69;100.00;95671.19;5093623;28;20204;-68
2020/12/29 09:35:27;;;;;;;1.57;0.90;;;;;;;3.69;100.00;95676.41;5093515;28;20243;-68
2020/12/29 09:37:55;;;;;;;3.10;1.27;;;;;;;3.77;100.00;95689.69;5093717;28;20248;-67
2020/12/29 09:40:22;;;;;;;1.23;0.97;;;;;;;3.82;100.00;95702.34;5093919;28;20258;-65
2020/12/29 09:42:48;;;;;;;1.40;0.93;;;;;;;3.80;100.00;95705.09;5093899;28;20211;-67
2020/12/29 09:45:17;;;;;;;1.20;1.10;;;;;;;3.87;100.00;95708.88;5093455;28;20215;-67
2020/12/29 09:47:43;;;;;;;1.23;1.13;;;;;;;3.82;100.00;95718.88;5093458;28;20293;-66
2020/12/29 09:50:09;;;;;;;2.03;1.20;;;;;;;3.88;100.00;95723.59;5092612;28;20223;-67
2020/12/29 09:52:35;;;;;;;1.07;0.97;;;;;;;3.88;100.00;95727.97;5092934;28;20668;-67
2020/12/29 09:55:02;;;;;;;1.90;1.00;;;;;;;3.94;100.00;95733.56;5093480;28;20236;-66
2020/12/29 09:57:28;;;;;;;1.30;1.20;;;;;;;4.00;100.00;95743.50;5093297;28;20207;-67
2020/12/29 09:59:54;;;;;;;1.20;1.10;;;;;;;4.11;100.00;95746.09;5093158;28;20202;-68
2020/12/29 10:02:21;;;;;;;0.90;0.70;;;;;;;4.13;100.00;95754.63;5093187;28;20217;-67
2020/12/29 10:04:47;;;;;;;1.07;0.93;;;;;;;4.16;100.00;95767.44;5092909;28;20697;-68
2020/12/29 10:07:13;;;;;;;0.80;0.60;;;;;;;4.10;100.00;95765.31;5092072;28;20207;-68
2020/12/29 10:09:39;;;;;;;1.10;0.70;;;;;;;4.10;100.00;95769.72;5092711;28;20256;-68
2020/12/29 10:12:06;;;;;;;0.50;0.50;;;;;;;4.16;100.00;95777.88;5092778;28;20265;-68
2020/12/29 10:14:32;;;;;;;0.60;0.60;;;;;;;4.20;100.00;95781.06;5092512;28;20215;-69
2020/12/29 10:16:58;;;;;;;0.60;0.60;;;;;;;4.18;100.00;95793.44;5088528;28;20238;-69
2020/12/29 10:19:24;;;;;;;1.33;0.70;;;;;;;4.19;100.00;95795.09;5091897;28;20672;-68
2020/12/29 10:21:51;;;;;;;0.60;0.60;;;;;;;4.20;100.00;95800.22;5092386;28;20296;-68
2020/12/29 10:24:17;;;;;;;0.80;0.70;;;;;;;4.20;100.00;95813.28;5091540;28;20217;-68
2020/12/29 10:26:43;;;;;;;0.70;0.70;;;;;;;4.30;100.00;95806.38;5089837;28;20210;-69
2020/12/29 10:29:10;;;;;;;0.70;0.70;;;;;;;4.32;100.00;95804.44;5091994;28;20268;-69
2020/12/29 10:31:36;;;;;;;0.67;0.67;;;;;;;4.39;100.00;95803.00;5091697;28;20210;-68
2020/12/29 10:34:02;;;;;;;0.57;0.57;;;;;;;4.42;100.00;95807.97;5091781;28;20206;-68
2020/12/29 10:36:32;;;;;;;1.30;0.80;;;;;;;4.39;100.00;95813.44;5092051;28;20602;-68
2020/12/29 10:38:58;;;;;;;1.00;0.73;;;;;;;4.51;100.00;95817.69;5091769;28;20237;-68
2020/12/29 10:41:28;;;;;;;0.77;0.60;;;;;;;4.48;100.00;95812.72;5091701;28;20204;-68
2020/12/29 10:43:54;;;;;;;0.60;0.60;;;;;;;4.44;100.00;95826.97;5090828;28;20396;-68
2020/12/29 10:46:21;;;;;;;0.70;0.60;;;;;;;4.60;100.00;95831.78;5091567;28;20207;-69
2020/12/29 10:48:47;;;;;;;0.90;0.80;;;;;;;4.64;100.00;95839.25;5092017;28;20213;-68
2020/12/29 10:51:17;;;;;;;0.70;0.70;;;;;;;4.68;100.00;95842.44;5092105;28;20221;-69
2020/12/29 10:53:42;;;;;;;0.60;0.60;;;;;;;4.64;100.00;95847.09;5092885;28;20241;-68
2020/12/29 10:56:09;;;;;;;2.43;0.70;;;;;;;4.59;100.00;95846.66;5092827;28;20280;-69
2020/12/29 10:58:35;;;;;;;1.13;0.60;;;;;;;4.63;100.00;95837.59;5092864;28;20216;-69
2020/12/29 11:01:01;;;;;;;0.60;0.60;;;;;;;4.63;100.00;95858.53;5092592;28;20218;-69
2020/12/29 11:03:28;;;;;;;0.70;0.70;;;;;;;4.67;100.00;95859.94;5092990;28;20247;-69
2020/12/29 11:05:54;;;;;;;0.50;0.50;;;;;;;4.71;100.00;95863.94;5092911;28;20207;-69
2020/12/29 11:08:19;;;;;;;0.60;0.60;;;;;;;4.74;100.00;95865.50;5092283;28;20238;-68
2020/12/29 11:10:45;;;;;;;0.93;0.50;;;;;;;4.72;99.00;95870.88;5091477;28;20214;-68
2020/12/29 11:13:11;;;;;;;0.47;0.47;;;;;;;4.76;97.25;95867.03;5096246;28;20261;-67
2020/12/29 11:15:37;;;;;;;0.60;0.60;;;;;;;4.70;95.94;95880.59;5096362;28;20687;-69
2020/12/29 11:18:03;;;;;;;0.60;0.60;;;;;;;4.64;99.15;95888.16;5096638;28;20261;-68
2020/12/29 11:20:30;;;;;;;1.27;0.80;;;;;;;4.56;100.00;95880.91;5096239;28;20216;-68
2020/12/29 11:22:56;;;;;;;1.17;0.60;;;;;;;4.52;100.00;95886.53;5096275;28;20221;-68
2020/12/29 11:25:22;;;;;;;0.50;0.50;;;;;;;4.55;99.21;95892.31;5096428;28;20612;-68
2020/12/29 11:27:48;;;;;;;0.60;0.60;;;;;;;4.68;97.97;95890.38;5096471;28;20208;-69
2020/12/29 11:30:14;;;;;;;0.70;0.70;;;;;;;4.86;95.99;95888.03;5096282;28;20285;-68
2020/12/29 11:32:40;;;;;;;0.77;0.60;;;;;;;4.96;93.57;95892.38;5095587;28;20263;-69
2020/12/29 11:35:06;;;;;;;0.60;0.60;;;;;;;5.06;93.68;95890.66;5094277;28;20203;-68